Pocahontas, Illinois
Current Conditions -  °F | °C
As of 4:55 AM on Wednesday 22 Oct 2014 (Local Time) from K3LF Reporting Station
Clear Clear  
Wind Chill: 36°   Ceiling: Unl
Heat Index: 41°   Visibility: 10mi
Dew Point: 38°   Wind: 8mph
Humidity: 88%   Direction: 80°E
Pressure: 30.26"   Gusts: NA
Location:  38.83°N, 89.54°W
Report Text: K3LF 220955Z AUTO 08007KT 10SM CLR 05/03 A3026 RMK AO2 T00500031
Loading
Personal Weather Stations






























Interactive Weather Map
Tropical Storm Tracking
New forecast layout! Learn more

10-Day Weather Forecast

Advertisements
Track Severe Weather on mobile